createdAt,value
2022-12-25T00:01:16.463Z,7.38
2022-12-25T00:03:46.081Z,7.55
2022-12-25T00:06:15.019Z,7.15
2022-12-25T00:08:46.732Z,7.43
2022-12-25T00:11:18.762Z,7.80
2022-12-25T00:13:48.427Z,7.47
2022-12-25T00:16:23.419Z,7.70
2022-12-25T00:18:52.563Z,7.97
2022-12-25T00:21:23.256Z,8.90
2022-12-25T00:23:59.505Z,7.20
2022-12-25T00:26:29.116Z,8.63
2022-12-25T00:28:59.910Z,8.60
2022-12-25T00:31:28.947Z,7.78
2022-12-25T00:33:57.657Z,7.18
2022-12-25T00:36:26.964Z,8.02
2022-12-25T00:38:55.795Z,8.18
2022-12-25T00:41:43.790Z,7.32
2022-12-25T00:44:14.447Z,7.95
2022-12-25T00:46:43.391Z,7.57
2022-12-25T00:49:13.380Z,8.25
2022-12-25T00:51:41.989Z,7.75
2022-12-25T00:54:12.981Z,7.80
2022-12-25T00:56:41.560Z,12.60
2022-12-25T00:59:10.375Z,8.50
2022-12-25T01:01:40.073Z,8.32
2022-12-25T01:04:12.317Z,9.38
2022-12-25T01:06:41.663Z,9.45
2022-12-25T01:09:29.247Z,8.30
2022-12-25T01:11:58.358Z,8.68
2022-12-25T01:14:27.639Z,8.68
2022-12-25T01:16:56.286Z,7.88
2022-12-25T01:19:24.990Z,8.52
2022-12-25T01:21:53.860Z,8.52
2022-12-25T01:24:22.579Z,9.43
2022-12-25T01:26:51.268Z,9.10
2022-12-25T01:29:19.830Z,8.70
2022-12-25T01:31:48.496Z,8.80
2022-12-25T01:34:17.243Z,9.05
2022-12-25T01:36:45.748Z,7.90
2022-12-25T01:39:15.303Z,7.45
2022-12-25T01:41:45.881Z,7.15
2022-12-25T01:44:17.355Z,7.60
2022-12-25T01:46:47.049Z,8.63
2022-12-25T01:49:22.371Z,7.45
2022-12-25T01:51:55.471Z,6.90
2022-12-25T01:54:47.664Z,6.85
2022-12-25T01:57:23.357Z,7.95
2022-12-25T01:59:53.147Z,6.80
2022-12-25T02:02:23.430Z,7.07
2022-12-25T02:04:58.626Z,7.43
2022-12-25T02:07:30.747Z,7.40
2022-12-25T02:09:59.868Z,9.45
2022-12-25T02:12:31.950Z,7.15
2022-12-25T02:15:06.229Z,7.10
2022-12-25T02:20:13.935Z,6.45
2022-12-25T02:23:05.159Z,6.90
2022-12-25T02:25:52.447Z,7.30
2022-12-25T02:28:23.376Z,6.50
2022-12-25T02:30:57.736Z,8.00
2022-12-25T02:33:55.478Z,8.32
2022-12-25T02:36:30.215Z,7.53
2022-12-25T02:39:21.437Z,6.15
2022-12-25T02:41:55.117Z,6.68
2022-12-25T02:44:44.732Z,7.23
2022-12-25T02:47:31.868Z,6.38
2022-12-25T02:50:20.316Z,6.47
2022-12-25T02:53:10.457Z,8.13
2022-12-25T02:56:01.536Z,6.70
2022-12-25T02:58:51.457Z,8.50
2022-12-25T03:01:42.850Z,12.93
2022-12-25T03:04:36.611Z,6.32
2022-12-25T03:07:17.658Z,7.88
2022-12-25T03:10:16.383Z,7.00
2022-12-25T03:12:54.634Z,6.70
2022-12-25T03:15:42.197Z,7.10
2022-12-25T03:18:15.502Z,6.85
2022-12-25T03:21:02.817Z,7.95
2022-12-25T03:23:53.033Z,8.88
2022-12-25T03:26:39.877Z,7.32
2022-12-25T03:29:08.692Z,7.95
2022-12-25T03:32:04.302Z,7.35
2022-12-25T03:34:57.957Z,7.78
2022-12-25T03:38:10.384Z,7.28
2022-12-25T03:41:25.402Z,8.38
2022-12-25T03:44:35.777Z,7.40
2022-12-25T03:47:22.478Z,8.10
2022-12-25T03:50:43.620Z,8.15
2022-12-25T03:54:00.926Z,8.10
2022-12-25T03:56:51.380Z,8.70
2022-12-25T03:59:40.964Z,8.38
2022-12-25T04:02:29.381Z,8.30
2022-12-25T04:05:16.489Z,8.15
2022-12-25T04:08:03.912Z,8.77
2022-12-25T04:10:51.247Z,7.72
2022-12-25T04:13:39.020Z,7.55
2022-12-25T04:16:26.512Z,8.52
2022-12-25T04:19:13.476Z,7.03
2022-12-25T04:22:00.753Z,7.85
2022-12-25T04:24:47.988Z,7.82
2022-12-25T04:27:35.093Z,7.85
2022-12-25T04:30:23.383Z,6.70
2022-12-25T04:33:16.464Z,6.25
2022-12-25T04:36:09.887Z,6.25
2022-12-25T04:38:39.880Z,6.35
2022-12-25T04:41:10.759Z,7.00
2022-12-25T04:43:39.832Z,7.63
2022-12-25T04:46:08.555Z,7.72
2022-12-25T04:48:37.905Z,7.38
2022-12-25T04:51:19.748Z,7.45
2022-12-25T04:53:49.489Z,9.27
2022-12-25T04:56:19.028Z,8.40
2022-12-25T04:58:48.627Z,8.40
2022-12-25T05:01:17.935Z,8.40
2022-12-25T05:03:47.124Z,7.05
2022-12-25T05:06:15.875Z,7.20
2022-12-25T05:08:44.877Z,7.53
2022-12-25T05:11:17.446Z,6.53
2022-12-25T05:13:46.858Z,7.63
2022-12-25T05:16:19.297Z,7.38
2022-12-25T05:18:52.576Z,7.70
2022-12-25T05:21:21.839Z,8.35
2022-12-25T05:23:54.515Z,9.63
2022-12-25T05:26:26.270Z,9.55
2022-12-25T05:28:55.833Z,8.73
2022-12-25T05:31:24.902Z,8.82
2022-12-25T05:33:54.175Z,8.93
2022-12-25T05:36:23.039Z,8.73
2022-12-25T05:38:51.753Z,8.60
2022-12-25T05:41:21.008Z,8.38
2022-12-25T05:43:49.915Z,7.35
2022-12-25T05:46:18.928Z,5.93
2022-12-25T05:48:47.864Z,6.78
2022-12-25T05:51:16.853Z,5.68
2022-12-25T05:53:45.995Z,6.13
2022-12-25T05:56:14.722Z,6.20
2022-12-25T05:58:43.724Z,5.57
2022-12-25T06:01:18.985Z,6.80
2022-12-25T06:03:48.241Z,6.90
2022-12-25T06:06:17.554Z,6.88
2022-12-25T06:08:46.718Z,7.40
2022-12-25T06:11:16.393Z,7.22
2022-12-25T06:13:45.716Z,6.53
2022-12-25T06:16:14.560Z,7.10
2022-12-25T06:18:46.857Z,7.22
2022-12-25T06:21:17.421Z,6.50
2022-12-25T06:23:46.102Z,6.72
2022-12-25T06:26:19.931Z,6.60
2022-12-25T06:28:49.368Z,6.93
2022-12-25T06:31:20.903Z,6.50
2022-12-25T06:33:50.380Z,6.90
2022-12-25T06:36:24.871Z,6.38
2022-12-25T06:41:25.569Z,7.25
2022-12-25T06:43:56.905Z,6.55
2022-12-25T06:46:27.543Z,7.22
2022-12-25T06:48:58.044Z,6.55
2022-12-25T06:51:29.932Z,7.13
2022-12-25T06:53:59.960Z,7.20
2022-12-25T06:56:29.662Z,6.95
2022-12-25T06:59:01.345Z,6.50
2022-12-25T07:01:50.320Z,6.53
2022-12-25T07:04:25.205Z,6.97
2022-12-25T07:06:54.350Z,6.93
2022-12-25T07:09:23.049Z,7.40
2022-12-25T07:11:52.031Z,7.32
2022-12-25T07:14:24.708Z,7.72
2022-12-25T07:16:53.740Z,8.02
2022-12-25T07:19:22.486Z,7.20
2022-12-25T07:21:51.273Z,6.90
2022-12-25T07:24:21.669Z,7.57
2022-12-25T07:26:52.420Z,6.85
2022-12-25T07:29:21.348Z,7.20
2022-12-25T07:31:50.247Z,6.40
2022-12-25T07:34:19.329Z,6.78
2022-12-25T07:36:48.036Z,7.95
2022-12-25T07:39:17.226Z,7.70
2022-12-25T07:41:46.002Z,7.80
2022-12-25T07:44:16.221Z,7.57
2022-12-25T07:46:45.068Z,8.85
2022-12-25T07:49:13.720Z,7.43
2022-12-25T07:51:42.576Z,6.90
2022-12-25T07:54:11.327Z,7.15
2022-12-25T07:56:40.062Z,6.50
2022-12-25T07:59:08.844Z,6.53
2022-12-25T08:01:37.838Z,7.13
2022-12-25T08:04:07.012Z,6.53
2022-12-25T08:06:37.090Z,7.07
2022-12-25T08:09:14.100Z,6.55
2022-12-25T08:11:47.789Z,6.72
2022-12-25T08:14:16.921Z,6.32
2022-12-25T08:16:47.516Z,5.68
2022-12-25T08:19:17.043Z,5.55
2022-12-25T08:21:45.762Z,5.85
2022-12-25T08:24:14.809Z,5.15
2022-12-25T08:26:43.819Z,5.75
2022-12-25T08:29:12.818Z,5.75
2022-12-25T08:31:46.497Z,6.10
2022-12-25T08:34:15.686Z,5.90
2022-12-25T08:36:44.728Z,5.78
2022-12-25T08:39:13.707Z,6.38
2022-12-25T08:41:42.667Z,5.65
2022-12-25T08:44:13.710Z,5.40
2022-12-25T08:46:42.912Z,5.28
2022-12-25T08:49:12.044Z,5.80
2022-12-25T08:51:41.093Z,5.25
2022-12-25T08:54:10.118Z,5.65
2022-12-25T08:56:38.768Z,6.10
2022-12-25T08:59:07.621Z,5.30
2022-12-25T09:01:36.774Z,6.05
2022-12-25T09:04:05.867Z,3.92
2022-12-25T09:06:34.887Z,5.45
2022-12-25T09:09:03.600Z,5.50
2022-12-25T09:11:32.721Z,5.88
2022-12-25T09:14:02.068Z,5.25
2022-12-25T09:16:31.622Z,5.53
2022-12-25T09:19:00.774Z,5.55
2022-12-25T09:21:29.752Z,5.57
2022-12-25T09:23:58.791Z,5.53
2022-12-25T09:26:28.064Z,5.45
2022-12-25T09:28:57.205Z,5.28
2022-12-25T09:31:26.533Z,5.60
2022-12-25T09:33:58.749Z,6.03
2022-12-25T09:36:27.650Z,5.80
2022-12-25T09:38:56.623Z,6.65
2022-12-25T09:41:25.294Z,6.18
2022-12-25T09:44:00.446Z,7.20
2022-12-25T09:46:37.263Z,5.65
2022-12-25T09:49:28.925Z,6.18
2022-12-25T09:52:09.235Z,5.93
2022-12-25T09:54:55.944Z,5.30
2022-12-25T09:57:26.040Z,5.65
2022-12-25T09:59:58.063Z,5.78
2022-12-25T10:05:19.836Z,5.90
2022-12-25T10:07:54.559Z,7.20
2022-12-25T10:11:04.034Z,7.65
2022-12-25T10:13:54.538Z,6.88
2022-12-25T10:16:50.989Z,7.53
2022-12-25T10:19:22.590Z,6.80
2022-12-25T10:21:55.729Z,6.07
2022-12-25T10:24:31.734Z,6.10
2022-12-25T10:27:04.324Z,6.65
2022-12-25T10:29:36.151Z,6.63
2022-12-25T10:32:05.643Z,6.38
2022-12-25T10:34:44.527Z,6.15
2022-12-25T10:37:13.872Z,6.88
2022-12-25T10:39:46.975Z,10.05
2022-12-25T10:42:38.506Z,10.45
2022-12-25T10:45:09.971Z,10.82
2022-12-25T10:47:43.139Z,11.70
2022-12-25T10:50:25.793Z,11.60
2022-12-25T10:53:10.278Z,11.50
2022-12-25T10:55:39.441Z,8.88
2022-12-25T10:58:08.349Z,7.95
2022-12-25T11:00:37.361Z,7.45
2022-12-25T11:03:06.592Z,7.68
2022-12-25T11:05:37.217Z,7.93
2022-12-25T11:08:21.981Z,8.20
2022-12-25T11:11:08.871Z,7.22
2022-12-25T11:13:48.607Z,6.75
2022-12-25T11:16:40.626Z,7.07
2022-12-25T11:19:28.676Z,7.90
2022-12-25T11:22:02.404Z,7.13
2022-12-25T11:24:33.764Z,8.00
2022-12-25T11:27:07.044Z,7.95
2022-12-25T11:29:51.415Z,8.90
2022-12-25T11:32:42.710Z,8.00
2022-12-25T11:35:18.050Z,8.10
2022-12-25T11:37:50.295Z,8.02
2022-12-25T11:40:28.283Z,7.57
2022-12-25T11:43:08.239Z,8.07
2022-12-25T11:45:42.496Z,7.95
2022-12-25T11:48:25.591Z,7.93
2022-12-25T11:51:03.770Z,7.55
2022-12-25T11:53:58.689Z,6.47
2022-12-25T11:56:31.283Z,6.50
2022-12-25T11:59:26.678Z,7.25
2022-12-25T12:02:19.488Z,7.82
2022-12-25T12:04:56.757Z,7.72
2022-12-25T12:07:31.521Z,7.63
2022-12-25T12:10:25.833Z,8.10
2022-12-25T12:13:03.607Z,8.30
2022-12-25T12:15:59.310Z,7.70
2022-12-25T12:18:28.176Z,8.68
2022-12-25T12:21:05.867Z,7.97
2022-12-25T12:24:13.227Z,7.78
2022-12-25T12:26:45.112Z,7.78
2022-12-25T12:29:30.323Z,7.10
2022-12-25T12:32:04.848Z,6.97
2022-12-25T12:34:44.361Z,7.43
2022-12-25T12:37:33.363Z,9.02
2022-12-25T12:40:02.877Z,8.80
2022-12-25T12:42:42.319Z,8.88
2022-12-25T12:45:26.695Z,10.52
2022-12-25T12:47:56.075Z,9.80
2022-12-25T12:50:34.187Z,9.40
2022-12-25T12:53:19.615Z,9.80
2022-12-25T12:55:48.473Z,10.60
2022-12-25T12:58:53.511Z,11.07
2022-12-25T13:01:28.368Z,10.63
2022-12-25T13:04:22.100Z,10.13
2022-12-25T13:07:01.687Z,9.63
2022-12-25T13:09:41.667Z,9.90
2022-12-25T13:12:15.842Z,12.60
2022-12-25T13:14:49.159Z,11.85
2022-12-25T13:17:29.142Z,15.13
2022-12-25T13:20:00.652Z,15.82
2022-12-25T13:22:35.592Z,17.83
2022-12-25T13:25:11.097Z,18.02
2022-12-25T13:27:40.113Z,17.35
2022-12-25T13:30:20.021Z,16.70
2022-12-25T13:32:50.034Z,17.13
2022-12-25T13:35:21.964Z,15.27
2022-12-25T13:37:51.424Z,14.57
2022-12-25T13:40:29.001Z,15.40
2022-12-25T13:43:02.873Z,13.10
2022-12-25T13:45:34.775Z,13.05
2022-12-25T13:48:16.988Z,12.10
2022-12-25T13:50:49.267Z,11.75
2022-12-25T13:53:19.316Z,10.90
2022-12-25T13:55:55.288Z,12.00
2022-12-25T13:58:30.989Z,11.75
2022-12-25T14:01:02.349Z,12.38
2022-12-25T14:03:45.268Z,11.25
2022-12-25T14:06:26.118Z,10.65
2022-12-25T14:08:57.439Z,10.38
2022-12-25T14:11:29.676Z,11.32
2022-12-25T14:14:05.284Z,12.73
2022-12-25T14:16:35.125Z,12.68
2022-12-25T14:19:04.867Z,13.18
2022-12-25T14:21:41.741Z,12.40
2022-12-25T14:24:16.465Z,13.20
2022-12-25T14:26:45.399Z,12.63
2022-12-25T14:29:24.998Z,12.57
2022-12-25T14:32:01.219Z,10.95
2022-12-25T14:34:34.405Z,10.43
2022-12-25T14:37:05.193Z,10.07
2022-12-25T14:39:39.057Z,10.15
2022-12-25T14:42:21.178Z,9.90
2022-12-25T14:45:33.856Z,8.93
2022-12-25T14:48:21.172Z,10.43
2022-12-25T14:51:03.580Z,9.77
2022-12-25T14:53:51.102Z,12.93
2022-12-25T14:56:21.964Z,12.10
2022-12-25T14:59:01.902Z,13.15
2022-12-25T15:01:34.938Z,12.05
2022-12-25T15:04:13.067Z,12.18
2022-12-25T15:06:55.819Z,11.60
2022-12-25T15:09:25.209Z,11.50
2022-12-25T15:11:56.843Z,13.10
2022-12-25T15:14:28.066Z,11.80
2022-12-25T15:17:00.538Z,12.48
2022-12-25T15:19:37.355Z,12.77
2022-12-25T15:22:08.382Z,10.85
2022-12-25T15:24:37.998Z,12.48
2022-12-25T15:27:15.029Z,9.88
2022-12-25T15:30:09.168Z,10.10
2022-12-25T15:32:33.881Z,11.02
2022-12-25T15:35:02.943Z,11.48
2022-12-25T15:37:32.117Z,10.73
2022-12-25T15:40:02.197Z,11.43
2022-12-25T15:42:31.170Z,11.23
2022-12-25T15:45:00.395Z,13.48
2022-12-25T15:47:29.442Z,10.95
2022-12-25T15:50:00.492Z,10.10
2022-12-25T15:52:30.216Z,8.27
2022-12-25T15:54:58.898Z,9.15
2022-12-25T15:57:27.656Z,10.52
2022-12-25T15:59:56.782Z,7.85
2022-12-25T16:02:26.198Z,7.47
2022-12-25T16:04:56.378Z,7.88
2022-12-25T16:07:26.483Z,8.02
2022-12-25T16:09:55.243Z,8.95
2022-12-25T16:12:24.324Z,9.75
2022-12-25T16:14:53.954Z,8.45
2022-12-25T16:17:22.805Z,9.07
2022-12-25T16:19:51.682Z,7.75
2022-12-25T16:22:23.866Z,7.18
2022-12-25T16:24:53.828Z,7.03
2022-12-25T16:27:23.659Z,7.75
2022-12-25T16:29:53.838Z,7.35
2022-12-25T16:32:22.972Z,6.93
2022-12-25T16:34:51.999Z,7.65
2022-12-25T16:37:21.061Z,7.07
2022-12-25T16:39:49.944Z,7.05
2022-12-25T16:42:22.611Z,9.82
2022-12-25T16:44:51.600Z,7.47
2022-12-25T16:47:21.138Z,7.82
2022-12-25T16:49:51.353Z,7.72
2022-12-25T16:52:22.173Z,7.53
2022-12-25T16:54:53.298Z,7.40
2022-12-25T16:57:22.468Z,7.80
2022-12-25T16:59:51.979Z,7.10
2022-12-25T17:02:23.159Z,7.72
2022-12-25T17:04:53.063Z,6.32
2022-12-25T17:07:23.529Z,7.57
2022-12-25T17:09:52.497Z,8.05
2022-12-25T17:12:24.793Z,7.22
2022-12-25T17:14:53.937Z,6.13
2022-12-25T17:17:22.695Z,8.32
2022-12-25T17:19:51.887Z,7.28
2022-12-25T17:22:21.386Z,6.95
2022-12-25T17:24:50.709Z,9.35
2022-12-25T17:27:19.938Z,9.48
2022-12-25T17:29:49.412Z,9.85
2022-12-25T17:32:18.195Z,8.68
2022-12-25T17:34:47.132Z,7.35
2022-12-25T17:37:16.352Z,6.00
2022-12-25T17:39:45.091Z,5.43
2022-12-25T17:42:14.004Z,6.03
2022-12-25T17:44:42.695Z,7.13
2022-12-25T17:47:12.892Z,6.28
2022-12-25T17:49:41.963Z,7.15
2022-12-25T17:52:10.978Z,6.22
2022-12-25T17:54:41.699Z,6.10
2022-12-25T17:57:11.264Z,5.70
2022-12-25T17:59:40.048Z,5.60
2022-12-25T18:02:12.906Z,6.65
2022-12-25T18:04:41.651Z,5.85
2022-12-25T18:07:10.393Z,6.10
2022-12-25T18:09:39.217Z,7.05
2022-12-25T18:12:08.244Z,7.18
2022-12-25T18:14:40.325Z,6.85
2022-12-25T18:17:09.149Z,5.97
2022-12-25T18:19:37.774Z,5.72
2022-12-25T18:22:06.668Z,6.45
2022-12-25T18:24:39.613Z,5.10
2022-12-25T18:27:08.412Z,6.57
2022-12-25T18:29:37.244Z,5.40
2022-12-25T18:32:06.768Z,5.25
2022-12-25T18:34:35.547Z,8.50
2022-12-25T18:37:05.127Z,6.18
2022-12-25T18:39:34.829Z,7.07
2022-12-25T18:42:22.123Z,6.65
2022-12-25T18:44:51.366Z,6.15
2022-12-25T18:47:20.276Z,7.18
2022-12-25T18:49:50.006Z,8.70
2022-12-25T18:52:49.455Z,8.15
2022-12-25T18:55:08.646Z,7.43
2022-12-25T18:57:37.556Z,7.57
2022-12-25T19:00:06.812Z,8.35
2022-12-25T19:02:35.944Z,7.85
2022-12-25T19:05:05.067Z,8.70
2022-12-25T19:07:33.901Z,8.32
2022-12-25T19:10:03.242Z,7.68
2022-12-25T19:12:32.041Z,7.70
2022-12-25T19:15:00.724Z,7.78
2022-12-25T19:17:31.886Z,6.70
2022-12-25T19:20:01.344Z,6.53
2022-12-25T19:22:30.205Z,7.38
2022-12-25T19:24:58.943Z,6.38
2022-12-25T19:27:27.920Z,7.78
2022-12-25T19:29:56.560Z,6.70
2022-12-25T19:32:25.366Z,7.05
2022-12-25T19:34:54.118Z,6.85
2022-12-25T19:37:22.671Z,7.50
2022-12-25T19:39:51.522Z,6.80
2022-12-25T19:42:22.698Z,6.80
2022-12-25T19:44:51.447Z,7.20
2022-12-25T19:47:20.283Z,5.95
2022-12-25T19:49:53.001Z,5.43
2022-12-25T19:52:22.362Z,5.53
2022-12-25T19:54:54.199Z,5.63
2022-12-25T19:57:22.981Z,5.90
2022-12-25T19:59:59.280Z,6.03
2022-12-25T20:02:28.184Z,6.63
2022-12-25T20:04:57.390Z,5.75
2022-12-25T20:07:26.003Z,6.38
2022-12-25T20:09:54.947Z,6.65
2022-12-25T20:12:24.472Z,5.93
2022-12-25T20:14:53.223Z,6.32
2022-12-25T20:17:22.309Z,5.72
2022-12-25T20:19:51.225Z,5.00
2022-12-25T20:22:19.787Z,4.82
2022-12-25T20:24:49.804Z,5.30
2022-12-25T20:27:18.485Z,5.25
2022-12-25T20:29:47.278Z,5.85
2022-12-25T20:32:16.288Z,5.53
2022-12-25T20:34:45.325Z,4.70
2022-12-25T20:37:14.154Z,4.93
2022-12-25T20:39:43.003Z,4.80
2022-12-25T20:42:11.726Z,5.10
2022-12-25T20:44:40.913Z,4.75
2022-12-25T20:47:09.825Z,4.75
2022-12-25T20:49:38.518Z,5.40
2022-12-25T20:52:07.525Z,5.35
2022-12-25T20:54:36.463Z,5.80
2022-12-25T20:57:05.325Z,6.00
2022-12-25T20:59:37.620Z,7.47
2022-12-25T21:02:07.807Z,6.80
2022-12-25T21:04:36.513Z,6.28
2022-12-25T21:07:06.722Z,5.78
2022-12-25T21:09:35.435Z,5.47
2022-12-25T21:12:04.267Z,5.35
2022-12-25T21:14:32.957Z,4.72
2022-12-25T21:17:01.694Z,4.55
2022-12-25T21:19:30.482Z,4.25
2022-12-25T21:21:59.290Z,4.20
2022-12-25T21:24:29.059Z,4.20
2022-12-25T21:26:57.725Z,3.47
2022-12-25T21:29:26.504Z,3.50
2022-12-25T21:32:13.940Z,2.88
2022-12-25T21:34:42.673Z,2.75
2022-12-25T21:37:11.601Z,3.10
2022-12-25T21:39:40.370Z,3.05
2022-12-25T21:42:08.971Z,2.67
2022-12-25T21:44:40.836Z,2.55
2022-12-25T21:47:09.566Z,2.30
2022-12-25T21:49:57.819Z,2.88
2022-12-25T21:52:26.876Z,2.60
2022-12-25T21:54:55.535Z,2.13
2022-12-25T21:57:24.174Z,2.35
2022-12-25T21:59:52.567Z,2.65
2022-12-25T22:02:21.909Z,2.30
2022-12-25T22:04:50.736Z,2.10
2022-12-25T22:07:19.584Z,2.30
2022-12-25T22:09:50.202Z,2.50
2022-12-25T22:12:39.743Z,2.67
2022-12-25T22:15:10.516Z,3.08
2022-12-25T22:18:02.225Z,2.90
2022-12-25T22:20:36.748Z,3.35
2022-12-25T22:23:06.267Z,4.18
2022-12-25T22:25:35.464Z,4.05
2022-12-25T22:28:05.911Z,3.28
2022-12-25T22:30:34.751Z,3.63
2022-12-25T22:33:03.815Z,3.03
2022-12-25T22:35:32.682Z,2.55
2022-12-25T22:38:02.339Z,3.75
2022-12-25T22:40:31.020Z,2.97
2022-12-25T22:42:59.678Z,2.97
2022-12-25T22:45:28.161Z,2.90
2022-12-25T22:47:58.405Z,3.22
2022-12-25T22:50:27.542Z,3.00
2022-12-25T22:52:56.454Z,2.72
2022-12-25T22:55:25.912Z,3.30
2022-12-25T22:57:54.931Z,2.80
2022-12-25T23:00:24.158Z,3.30
2022-12-25T23:02:53.136Z,2.70
2022-12-25T23:05:22.931Z,3.00
2022-12-25T23:07:52.866Z,2.63
2022-12-25T23:10:22.438Z,3.10
2022-12-25T23:13:10.202Z,3.25
2022-12-25T23:15:39.245Z,3.45
2022-12-25T23:18:26.160Z,4.15
2022-12-25T23:21:19.381Z,3.30
2022-12-25T23:24:07.075Z,3.40
2022-12-25T23:26:36.061Z,3.13
2022-12-25T23:29:23.872Z,3.60
2022-12-25T23:31:54.281Z,4.32
2022-12-25T23:34:23.071Z,4.28
2022-12-25T23:36:51.902Z,3.80
2022-12-25T23:39:20.781Z,3.65
2022-12-25T23:41:49.701Z,3.40
2022-12-25T23:44:18.707Z,4.05
2022-12-25T23:46:52.830Z,3.80
2022-12-25T23:49:23.369Z,3.20
2022-12-25T23:51:52.695Z,3.20
2022-12-25T23:54:24.325Z,3.03
2022-12-25T23:56:56.080Z,2.42
2022-12-25T23:59:30.126Z,3.33
